TimeCST,TemperatureF,Dew PointF,Humidity,Sea Level PressureIn,VisibilityMPH,Wind Direction,Wind SpeedMPH,Gust SpeedMPH,PrecipitationIn,Events,Conditions,WindDirDegrees,DateUTC
12:00 AM,82,77,80,29.83,9,East,9.2,,,,Smoke,100,2013-05-22 06:00:00
3:00 AM,82,76,78,29.78,9,East,11.5,,,,Smoke,100,2013-05-22 09:00:00
5:00 AM,82.4,77.0,84,29.77,6.2,East,5.8,-,N/A,,Mostly Cloudy,100,2013-05-22 11:00:00
6:00 AM,82,77,80,29.80,12,East,13.8,,,,Partly Cloudy,100,2013-05-22 12:00:00
6:00 AM,82.4,77.0,84,29.77,6.2,East,13.8,-,N/A,,Mostly Cloudy,100,2013-05-22 12:00:00
7:00 AM,82.4,77.0,84,29.80,6.2,ESE,13.8,-,N/A,,Mostly Cloudy,110,2013-05-22 13:00:00
8:00 AM,86.0,77.0,74,29.83,6.2,East,13.8,-,N/A,,Mostly Cloudy,90,2013-05-22 14:00:00
9:00 AM,86,78,70,29.83,11,ESE,8.1,,,,Mostly Cloudy,120,2013-05-22 15:00:00
9:00 AM,86.0,77.0,74,29.83,6.2,ESE,8.1,-,N/A,,Scattered Clouds,120,2013-05-22 15:00:00
10:00 AM,86.0,77.0,74,29.83,6.2,ESE,6.9,-,N/A,,Scattered Clouds,120,2013-05-22 16:00:00
11:00 AM,87.8,77.0,70,29.82,6.2,SE,6.9,-,N/A,,Mostly Cloudy,130,2013-05-22 17:00:00
12:00 PM,89,78,63,29.81,11,East,6.9,,,,Mostly Cloudy,100,2013-05-22 18:00:00
12:00 PM,89.6,78.8,70,29.80,6.2,East,6.9,-,N/A,,Mostly Cloudy,100,2013-05-22 18:00:00
1:00 PM,89.6,78.8,70,29.77,6.2,ENE,10.4,-,N/A,,Mostly Cloudy,70,2013-05-22 19:00:00
3:00 PM,88,78,67,29.75,11,ENE,11.5,,,,Partly Cloudy,70,2013-05-22 21:00:00
3:00 PM,87.8,78.8,75,29.74,6.2,ENE,11.5,-,N/A,,Scattered Clouds,70,2013-05-22 21:00:00
4:00 PM,87.8,78.8,75,29.74,6.2,ENE,11.5,-,N/A,,Scattered Clouds,70,2013-05-22 22:00:00
5:00 PM,86.0,78.8,79,29.75,6.2,ENE,9.2,-,N/A,,Scattered Clouds,70,2013-05-22 23:00:00
6:00 PM,85,78,76,29.77,11,East,8.1,,,,Mostly Cloudy,80,2013-05-23 00:00:00
6:00 PM,84.2,78.8,84,29.79,6.2,East,8.1,-,N/A,,Mostly Cloudy,80,2013-05-23 00:00:00